Time;durP1;ratioP1;P1;durP2;ratioP2;P2;SDS_P1;SDS_P2;PMS_P1;PMS_P2;Temp;Humidity;BMP_temperature;BMP_pressure;BME280_temperature;BME280_humidity;BME280_pressure;Samples;Min_cycle;Max_cycle;Signal;HPM_P1;HPM_P2
2022/11/18 07:43:03;;;;;;;;;1.75;1.50;;;;;18.15;53.69;100076.06;5084020;27;45459;-76
2022/11/18 07:45:28;;;;;;;;;0.00;0.00;;;;;18.43;54.03;100068.84;5070868;28;48083;-75
2022/11/18 07:47:54;;;;;;;;;1.33;0.67;;;;;18.89;54.27;100067.09;5068578;28;54681;-75
2022/11/18 07:50:19;;;;;;;;;0.33;0.33;;;;;19.42;53.92;100078.81;5071369;27;45550;-78
2022/11/18 07:52:44;;;;;;;;;1.33;0.67;;;;;19.92;53.66;100083.66;5061556;27;45581;-76
2022/11/18 07:55:09;;;;;;;;;3.67;2.00;;;;;20.36;53.99;100082.72;5068014;28;48825;-77
2022/11/18 07:57:35;;;;;;;;;3.00;1.67;;;;;20.79;53.89;100079.94;5074301;27;50063;-77
2022/11/18 08:00:00;;;;;;;;;2.67;1.00;;;;;21.19;53.40;100082.88;5071738;27;45301;-77
2022/11/18 08:02:25;;;;;;;;;1.00;0.00;;;;;21.53;53.58;100076.44;5070973;28;45438;-78
2022/11/18 08:04:51;;;;;;;;;2.33;2.00;;;;;21.89;53.32;100077.06;5069500;27;46628;-77
2022/11/18 08:07:16;;;;;;;;;3.00;3.00;;;;;22.20;52.39;100084.38;5072246;27;45623;-77
2022/11/18 08:09:41;;;;;;;;;2.67;2.67;;;;;22.47;52.53;100095.72;5066943;27;45525;-78
2022/11/18 08:12:07;;;;;;;;;2.00;1.00;;;;;22.68;51.92;100092.44;5070815;28;56152;-79
2022/11/18 08:14:32;;;;;;;;;3.00;2.00;;;;;22.83;51.79;100086.25;5062256;27;57287;-75
2022/11/18 08:16:57;;;;;;;;;2.00;0.00;;;;;23.07;51.30;100114.16;5071618;27;46112;-73
2022/11/18 08:19:22;;;;;;;;;1.00;1.00;;;;;23.16;51.43;100108.50;5071351;27;49558;-72
2022/11/18 08:21:48;;;;;;;;;0.67;0.67;;;;;23.35;51.06;100116.34;5069092;27;58738;-76
2022/11/18 08:24:13;;;;;;;;;1.00;1.00;;;;;23.45;51.12;100116.09;5070849;27;45397;-75
2022/11/18 08:26:39;;;;;;;;;2.00;0.67;;;;;23.61;50.16;100118.63;5070846;28;45619;-76
2022/11/18 08:29:04;;;;;;;;;1.00;1.00;;;;;23.75;50.49;100125.09;5071959;27;45448;-76
2022/11/18 08:31:29;;;;;;;;;1.33;1.33;;;;;23.87;50.32;100133.59;5071168;27;46102;-75
2022/11/18 08:33:59;;;;;;;;;1.00;1.00;;;;;23.98;50.26;100136.91;5067792;27;48902;-74
2022/11/18 08:36:27;;;;;;;;;1.00;1.00;;;;;24.10;50.21;100142.75;5074867;27;45356;-74
2022/11/18 08:38:57;;;;;;;;;3.00;2.00;;;;;24.20;50.16;100151.44;5064326;27;45702;-74
2022/11/18 08:41:34;;;;;;;;;2.67;1.33;;;;;24.29;49.96;100149.44;5070541;27;45529;-73
2022/11/18 08:44:00;;;;;;;;;2.00;0.33;;;;;24.33;49.62;100156.19;5076319;27;45482;-74
2022/11/18 08:46:26;;;;;;;;;0.33;0.33;;;;;24.40;49.41;100153.56;5071464;27;45815;-74
2022/11/18 08:48:51;;;;;;;;;2.00;1.00;;;;;24.45;49.34;100154.66;5071017;27;45454;-74
2022/11/18 08:51:17;;;;;;;;;1.67;1.67;;;;;24.46;49.15;100150.94;5069545;27;45360;-78
2022/11/18 08:53:42;;;;;;;;;1.00;1.00;;;;;24.54;49.17;100149.13;5061674;27;45497;-74
2022/11/18 08:56:16;;;;;;;;;1.00;1.00;;;;;24.57;49.04;100148.78;5057358;28;45883;-75
2022/11/18 08:58:42;;;;;;;;;3.67;1.33;;;;;24.59;48.87;100146.69;5057693;28;45507;-72
2022/11/18 09:01:08;;;;;;;;;0.33;0.33;;;;;24.58;48.72;100145.88;5070636;28;45433;-77
2022/11/18 09:03:34;;;;;;;;;1.00;1.00;;;;;24.61;48.54;100145.47;5057021;28;45320;-71
2022/11/18 09:06:26;;;;;;;;;1.67;1.00;;;;;24.64;48.22;100152.38;5058066;28;45481;-69
2022/11/18 09:08:52;;;;;;;;;1.33;0.00;;;;;24.66;48.63;100153.06;5061615;28;45300;-71
2022/11/18 09:11:25;;;;;;;;;1.67;1.67;;;;;24.70;48.31;100158.94;5065429;28;46305;-70
2022/11/18 09:13:56;;;;;;;;;2.33;2.00;;;;;24.73;48.22;100170.25;5050612;28;45459;-69
2022/11/18 09:16:23;;;;;;;;;1.33;1.33;;;;;24.78;48.34;100160.69;5044178;28;45451;-69
2022/11/18 09:18:50;;;;;;;;;0.67;0.67;;;;;24.80;48.15;100167.59;5056759;28;45400;-68
2022/11/18 09:21:16;;;;;;;;;1.00;1.00;;;;;24.80;47.78;100175.75;5054857;28;46160;-67
2022/11/18 09:23:41;;;;;;;;;5.00;1.00;;;;;24.80;47.99;100170.31;5055475;28;45399;-68
2022/11/18 09:26:09;;;;;;;;;0.00;0.00;;;;;24.84;47.86;100181.66;5056767;28;45417;-69
2022/11/18 09:28:35;;;;;;;;;1.00;1.00;;;;;24.87;47.72;100175.84;5056467;28;45613;-69
2022/11/18 09:31:08;;;;;;;;;2.00;0.00;;;;;24.90;47.69;100172.78;5056576;28;45438;-71
2022/11/18 09:33:34;;;;;;;;;2.67;1.33;;;;;24.91;47.41;100169.03;5056971;28;45359;-68
2022/11/18 09:36:00;;;;;;;;;0.00;0.00;;;;;24.97;47.66;100173.69;5056375;28;45315;-69
2022/11/18 09:38:28;;;;;;;;;1.33;1.00;;;;;25.03;47.82;100187.50;5056238;28;45398;-71
2022/11/18 09:41:08;;;;;;;;;1.00;1.00;;;;;25.04;47.52;100176.47;5058085;28;45992;-71
2022/11/18 09:43:48;;;;;;;;;0.33;0.33;;;;;25.07;47.39;100186.09;5041068;28;45313;-73
2022/11/18 09:46:28;;;;;;;;;1.67;0.00;;;;;25.11;47.24;100180.09;5056702;28;45436;-71
2022/11/18 09:49:12;;;;;;;;;1.33;0.00;;;;;25.17;47.34;100185.78;5049683;28;45732;-75
2022/11/18 09:51:44;;;;;;;;;3.33;1.33;;;;;25.21;47.10;100182.47;5055166;28;45948;-71
2022/11/18 09:54:15;;;;;;;;;1.67;1.00;;;;;25.27;47.39;100178.97;5056138;28;45427;-70
2022/11/18 09:56:40;;;;;;;;;1.67;1.00;;;;;25.32;47.08;100189.28;5056777;27;45672;-72
2022/11/18 09:59:09;;;;;;;;;1.67;1.67;;;;;25.41;47.40;100178.28;5056833;28;45634;-71
2022/11/18 10:01:35;;;;;;;;;3.00;0.00;;;;;25.51;47.34;100185.06;5055825;28;45525;-69
2022/11/18 10:04:01;;;;;;;;;1.33;1.33;;;;;25.60;47.09;100196.69;5048126;28;45466;-71
2022/11/18 10:06:28;;;;;;;;;3.00;1.00;;;;;25.73;46.67;100189.66;5054982;28;45321;-71
2022/11/18 10:09:20;;;;;;;;;0.00;0.00;;;;;25.84;46.95;100201.88;5056521;28;45453;-70
2022/11/18 10:11:57;;;;;;;;;1.00;1.00;;;;;25.95;47.08;100201.31;5052589;28;45845;-72
2022/11/18 10:14:48;;;;;;;;;2.00;1.00;;;;;26.04;47.00;100202.84;5056579;28;45479;-70
2022/11/18 10:17:42;;;;;;;;;1.00;1.00;;;;;26.14;46.42;100205.22;5054770;28;45482;-71
2022/11/18 10:20:20;;;;;;;;;1.67;1.67;;;;;26.20;46.32;100209.03;5036109;28;45374;-70
2022/11/18 10:22:53;;;;;;;;;0.00;0.00;;;;;26.17;46.20;100195.84;5042287;28;45455;-72
2022/11/18 10:25:19;;;;;;;;;2.33;1.00;;;;;26.24;46.05;100198.59;5055253;28;45451;-69
2022/11/18 10:27:47;;;;;;;;;2.00;0.67;;;;;26.24;45.94;100209.47;5055900;28;45458;-68
2022/11/18 10:30:14;;;;;;;;;1.00;1.00;;;;;26.22;46.02;100215.09;5056642;28;45644;-70
2022/11/18 10:32:58;;;;;;;;;2.67;2.00;;;;;26.23;46.15;100207.81;5056571;28;45920;-70
2022/11/18 10:35:37;;;;;;;;;0.33;0.00;;;;;26.29;46.11;100213.28;5054201;28;46321;-70
2022/11/18 10:38:11;;;;;;;;;1.00;0.67;;;;;26.37;45.87;100220.47;5069730;28;45401;-70
2022/11/18 10:40:44;;;;;;;;;3.00;1.67;;;;;26.46;45.67;100223.00;5054323;28;45422;-70
2022/11/18 10:43:10;;;;;;;;;1.00;1.00;;;;;26.47;46.27;100209.22;5055390;28;45454;-70
2022/11/18 10:45:35;;;;;;;;;2.00;2.00;;;;;26.51;46.17;100218.66;5055065;28;45529;-70
2022/11/18 10:48:00;;;;;;;;;2.33;0.33;;;;;26.58;45.54;100221.41;5053761;28;45430;-69
2022/11/18 10:50:29;;;;;;;;;1.00;1.00;;;;;26.61;45.65;100215.56;5051731;28;45582;-69
2022/11/18 10:52:55;;;;;;;;;1.00;1.00;;;;;26.69;45.42;100215.38;5054002;28;46185;-71
2022/11/18 10:55:22;;;;;;;;;2.67;1.67;;;;;26.66;45.40;100214.94;5053182;28;46134;-68
2022/11/18 10:57:52;;;;;;;;;0.33;0.33;;;;;26.59;45.41;100206.75;5055049;28;45687;-70
2022/11/18 11:00:47;;;;;;;;;0.00;0.00;;;;;26.49;45.17;100211.72;5070883;28;45461;-72
2022/11/18 11:03:30;;;;;;;;;1.00;1.00;;;;;26.34;44.52;100207.25;5054791;28;46233;-71
2022/11/18 11:06:27;;;;;;;;;1.00;1.00;;;;;26.14;44.67;100202.50;5054662;28;45415;-69
2022/11/18 11:08:55;;;;;;;;;1.33;1.00;;;;;26.07;44.48;100217.94;5055177;28;45417;-70
2022/11/18 11:11:33;;;;;;;;;1.00;1.00;;;;;25.95;44.36;100224.97;5086430;27;45481;-69
2022/11/18 11:14:06;;;;;;;;;3.00;1.00;;;;;25.86;44.32;100219.66;5051480;28;45472;-68
2022/11/18 11:16:38;;;;;;;;;1.00;1.00;;;;;25.78;44.44;100228.81;5049915;28;45328;-68
2022/11/18 11:19:05;;;;;;;;;0.00;0.00;;;;;25.71;44.42;100227.06;5050612;28;45497;-68
2022/11/18 11:21:31;;;;;;;;;0.00;0.00;;;;;25.56;44.26;100213.56;5044201;28;45489;-69
2022/11/18 11:23:56;;;;;;;;;2.00;0.00;;;;;25.53;44.13;100231.06;5047453;28;45667;-68
2022/11/18 11:26:28;;;;;;;;;1.00;1.00;;;;;25.47;44.19;100229.13;5054665;28;45331;-68
2022/11/18 11:29:08;;;;;;;;;1.33;1.33;;;;;25.35;44.36;100234.22;5048273;28;45593;-69
2022/11/18 11:31:52;;;;;;;;;2.33;1.00;;;;;25.29;43.86;100226.88;5052669;28;45380;-69
2022/11/18 11:35:14;;;;;;;;;1.00;1.00;;;;;25.23;44.15;100221.16;5047868;28;45521;-68
2022/11/18 11:37:45;;;;;;;;;2.00;0.00;;;;;25.16;43.84;100219.38;5007907;28;45546;-68
2022/11/18 11:40:49;;;;;;;;;0.00;0.00;;;;;25.07;43.70;100227.69;5010454;28;45529;-68
2022/11/18 11:43:36;;;;;;;;;2.33;2.33;;;;;25.02;44.09;100227.41;5006300;28;45657;-68
2022/11/18 11:46:25;;;;;;;;;0.00;0.00;;;;;25.02;43.74;100223.84;5014042;28;47598;-69
2022/11/18 11:49:11;;;;;;;;;3.33;1.00;;;;;25.07;44.09;100222.25;5007960;28;45497;-68
2022/11/18 11:52:18;;;;;;;;;0.67;0.67;;;;;25.19;43.99;100229.88;5011407;28;45433;-69
2022/11/18 11:55:00;;;;;;;;;2.00;1.00;;;;;25.30;44.33;100228.53;4974542;28;45610;-69
2022/11/18 11:57:25;;;;;;;;;1.67;1.67;;;;;25.43;44.43;100230.53;4978971;28;45762;-70
2022/11/18 12:00:03;;;;;;;;;3.00;1.00;;;;;25.53;44.43;100231.06;4971183;28;45708;-69
2022/11/18 12:02:34;;;;;;;;;2.00;1.67;;;;;25.63;44.10;100226.16;4956101;28;45506;-69
2022/11/18 12:05:19;;;;;;;;;4.67;1.00;;;;;25.76;43.76;100224.59;4974578;28;45486;-67
2022/11/18 12:08:08;;;;;;;;;1.00;1.00;;;;;25.88;44.31;100214.03;4989636;28;45506;-68
2022/11/18 12:10:49;;;;;;;;;0.67;0.67;;;;;25.98;43.90;100211.81;5015093;28;45544;-69
2022/11/18 12:13:20;;;;;;;;;4.33;1.33;;;;;26.14;43.77;100217.97;5011522;28;45565;-68
2022/11/18 12:15:45;;;;;;;;;0.33;0.33;;;;;26.21;43.26;100212.59;5011371;28;45491;-69
2022/11/18 12:18:28;;;;;;;;;1.00;1.00;;;;;26.25;43.95;100216.63;5010479;28;46298;-69
2022/11/18 12:20:54;;;;;;;;;1.00;1.00;;;;;26.25;43.24;100208.47;5011462;28;45618;-69
2022/11/18 12:23:27;;;;;;;;;2.00;2.00;;;;;26.28;43.70;100210.78;5011637;28;47967;-69
2022/11/18 12:25:58;;;;;;;;;1.00;1.00;;;;;26.32;43.38;100217.47;5011271;28;45651;-68
2022/11/18 12:28:32;;;;;;;;;1.33;1.33;;;;;26.34;43.66;100211.84;5012743;28;45569;-69
2022/11/18 12:31:16;;;;;;;;;2.00;1.33;;;;;26.36;43.39;100216.06;5025062;28;45432;-69
2022/11/18 12:33:45;;;;;;;;;1.00;1.00;;;;;26.40;43.38;100227.41;5056903;28;45485;-70
2022/11/18 12:36:29;;;;;;;;;2.00;1.00;;;;;26.42;43.40;100220.72;5057370;28;45437;-68
2022/11/18 12:38:55;;;;;;;;;1.00;1.00;;;;;26.40;43.48;100214.59;5056491;28;45491;-69
2022/11/18 12:44:36;;;;;;;;;5.00;3.00;;;;;26.44;43.47;100213.16;4970816;28;45734;-68
2022/11/18 12:47:03;;;;;;;;;1.67;1.67;;;;;26.46;43.88;100220.28;4974140;28;45611;-68
2022/11/18 12:49:28;;;;;;;;;1.33;1.00;;;;;26.52;43.22;100219.50;4973481;28;46018;-68
2022/11/18 12:52:00;;;;;;;;;0.00;0.00;;;;;26.57;43.64;100214.28;4974894;28;45405;-69
2022/11/18 12:54:34;;;;;;;;;2.00;1.00;;;;;26.63;43.57;100221.63;4975030;28;45509;-68
2022/11/18 12:57:20;;;;;;;;;2.00;2.00;;;;;26.69;43.52;100212.66;4974024;28;45481;-69
2022/11/18 12:59:45;;;;;;;;;1.33;1.33;;;;;26.76;43.45;100214.59;4963437;28;46105;-71
2022/11/18 13:02:11;;;;;;;;;1.67;1.67;;;;;26.80;43.77;100213.97;4975154;28;45709;-70
2022/11/18 13:04:39;;;;;;;;;1.00;1.00;;;;;26.80;43.09;100211.25;4974342;28;45535;-71
2022/11/18 13:08:11;;;;;;;;;2.33;1.00;;;;;26.81;43.46;100210.19;4974462;28;45452;-70
2022/11/18 13:09:55;;;;;;;;;2.33;2.00;;;;;26.78;43.56;100212.50;4972350;28;45957;-71
2022/11/18 13:12:24;;;;;;;;;2.00;2.00;;;;;26.75;42.72;100210.16;4976160;28;45837;-68
2022/11/18 13:17:57;;;;;;;;;1.00;1.00;;;;;26.54;42.72;100207.38;4968926;28;45570;-67
2022/11/18 13:20:32;;;;;;;;;2.00;1.00;;;;;26.44;42.71;100223.19;4992640;28;46400;-67
2022/11/18 13:26:25;;;;;;;;;1.33;1.33;;;;;26.29;42.79;100207.84;5057303;28;45434;-70
2022/11/18 13:29:14;;;;;;;;;1.67;1.67;;;;;26.34;42.88;100220.88;5042113;28;45453;-72
2022/11/18 13:31:58;;;;;;;;;1.33;1.33;;;;;26.38;43.17;100213.97;5051038;28;46399;-72
2022/11/18 13:34:27;;;;;;;;;1.00;1.00;;;;;26.44;43.29;100218.63;5052486;28;45464;-71
2022/11/18 13:36:54;;;;;;;;;1.00;1.00;;;;;26.52;42.92;100212.16;5055363;28;45757;-71
2022/11/18 13:39:23;;;;;;;;;1.33;1.33;;;;;26.66;42.80;100217.69;5059533;28;45444;-71
2022/11/18 13:42:01;;;;;;;;;1.00;1.00;;;;;26.77;42.78;100216.25;5056119;28;46291;-74
2022/11/18 13:44:29;;;;;;;;;2.00;0.67;;;;;26.84;43.32;100212.53;5055600;28;45446;-74
2022/11/18 13:47:12;;;;;;;;;3.33;2.00;;;;;26.91;42.71;100206.25;5056776;28;46623;-72
2022/11/18 13:49:47;;;;;;;;;2.00;2.00;;;;;26.92;43.15;100213.38;5050529;28;45643;-74
2022/11/18 13:52:16;;;;;;;;;1.00;1.00;;;;;26.94;42.43;100214.88;5056782;28;45390;-72
2022/11/18 13:54:42;;;;;;;;;2.00;2.00;;;;;26.95;43.10;100218.44;5052848;28;45454;-73
2022/11/18 13:57:18;;;;;;;;;1.67;1.00;;;;;26.95;43.13;100222.03;5056760;28;45920;-73
2022/11/18 13:59:46;;;;;;;;;2.00;2.00;;;;;26.96;42.98;100229.13;5052979;28;46725;-73
2022/11/18 14:02:13;;;;;;;;;2.00;1.00;;;;;26.95;42.79;100224.75;5056191;28;45398;-73
2022/11/18 14:04:49;;;;;;;;;1.00;1.00;;;;;26.98;42.83;100234.38;5055682;28;45491;-71
2022/11/18 14:07:35;;;;;;;;;1.00;1.00;;;;;26.96;42.83;100234.59;5056506;28;45447;-71
2022/11/18 14:10:04;;;;;;;;;0.33;0.33;;;;;26.91;42.21;100222.59;5055469;28;45412;-72
2022/11/18 14:12:31;;;;;;;;;2.00;1.00;;;;;26.89;42.37;100232.84;5056660;28;45418;-72
2022/11/18 14:15:15;;;;;;;;;1.00;1.00;;;;;26.90;42.42;100226.34;5055632;28;45462;-73
2022/11/18 14:17:53;;;;;;;;;1.33;1.33;;;;;26.92;42.39;100233.28;5055167;28;45353;-71
2022/11/18 14:20:19;;;;;;;;;4.33;2.00;;;;;26.93;42.48;100226.81;5055207;28;45577;-70
2022/11/18 14:22:49;;;;;;;;;4.67;4.67;;;;;26.93;42.44;100229.53;5055586;28;46203;-74
2022/11/18 14:25:18;;;;;;;;;3.33;1.67;;;;;26.91;42.28;100219.88;5055602;28;45448;-73
2022/11/18 14:27:47;;;;;;;;;3.33;3.33;;;;;26.82;42.47;100227.38;5060605;28;45600;-76
2022/11/18 14:30:53;;;;;;;;;0.33;0.33;;;;;26.62;41.74;100230.84;5054544;28;45418;-71
2022/11/18 14:33:23;;;;;;;;;2.67;1.00;;;;;26.43;41.45;100232.41;5047867;28;45808;-75
2022/11/18 14:35:58;;;;;;;;;2.00;1.00;;;;;26.20;41.57;100235.38;5053426;28;45517;-75
2022/11/18 14:38:42;;;;;;;;;2.00;2.00;;;;;26.04;42.10;100237.38;5054169;28;45530;-75
2022/11/18 14:41:10;;;;;;;;;0.33;0.00;;;;;25.87;41.57;100237.66;5055274;28;45859;-73
2022/11/18 14:43:36;;;;;;;;;2.00;1.33;;;;;25.71;41.60;100240.66;5055132;28;45841;-75
2022/11/18 14:46:18;;;;;;;;;0.33;0.33;;;;;25.59;41.83;100245.78;5055724;28;45478;-72
2022/11/18 14:48:44;;;;;;;;;1.00;1.00;;;;;25.48;41.89;100242.53;5047218;28;45361;-70
2022/11/18 14:51:14;;;;;;;;;2.00;2.00;;;;;25.37;41.76;100249.28;5054220;28;45380;-70
2022/11/18 14:53:41;;;;;;;;;3.33;0.33;;;;;25.26;41.55;100238.94;5036645;28;45391;-70
2022/11/18 14:56:28;;;;;;;;;1.00;1.00;;;;;25.20;42.10;100253.28;5049521;28;45446;-71
2022/11/18 14:58:53;;;;;;;;;0.00;0.00;;;;;25.10;41.54;100250.88;5055494;28;46372;-71
2022/11/18 15:01:19;;;;;;;;;2.00;2.00;;;;;25.05;42.10;100248.72;5054246;28;46104;-70
2022/11/18 15:03:44;;;;;;;;;1.00;1.00;;;;;24.92;41.90;100243.13;5054822;28;46735;-71
2022/11/18 15:06:13;;;;;;;;;0.67;0.67;;;;;24.92;41.72;100268.41;5054708;28;45459;-71
2022/11/18 15:08:38;;;;;;;;;2.00;1.00;;;;;24.80;42.26;100249.03;5054609;28;45339;-70
2022/11/18 15:11:04;;;;;;;;;4.67;1.00;;;;;24.82;41.82;100267.84;5054337;28;45354;-71
2022/11/18 15:13:29;;;;;;;;;2.33;2.33;;;;;24.79;42.43;100271.78;5054255;28;45386;-71
2022/11/18 15:15:54;;;;;;;;;2.00;2.00;;;;;24.74;41.92;100268.78;5054006;28;54217;-69
2022/11/18 15:18:23;;;;;;;;;3.33;3.33;;;;;24.70;42.52;100271.03;5053426;28;45440;-69
2022/11/18 15:20:49;;;;;;;;;4.67;3.00;;;;;24.69;42.09;100276.66;5054506;28;45471;-67
2022/11/18 15:23:14;;;;;;;;;3.67;3.00;;;;;24.64;42.34;100270.94;5069492;28;46120;-69
2022/11/18 15:25:39;;;;;;;;;1.67;1.67;;;;;24.70;42.07;100283.75;5053408;28;61115;-68
2022/11/18 15:28:05;;;;;;;;;2.00;2.00;;;;;24.76;42.63;100277.56;5054214;28;46880;-70
2022/11/18 15:30:30;;;;;;;;;3.00;3.00;;;;;24.85;42.28;100284.63;5054458;28;45407;-71
2022/11/18 15:32:56;;;;;;;;;2.00;2.00;;;;;24.96;42.35;100294.16;5060665;27;50103;-71
2022/11/18 15:35:21;;;;;;;;;4.00;2.00;;;;;25.08;42.43;100296.38;5050056;28;45672;-68
2022/11/18 15:37:46;;;;;;;;;4.67;3.00;;;;;25.18;42.41;100298.81;5045443;28;45717;-68
2022/11/18 15:40:12;;;;;;;;;5.33;3.00;;;;;25.30;42.26;100301.88;5051311;28;46486;-67
2022/11/18 15:42:37;;;;;;;;;3.33;2.00;;;;;25.38;42.07;100299.03;5051234;28;45468;-68
2022/11/18 15:45:03;;;;;;;;;2.33;2.33;;;;;25.49;42.55;100292.25;5053702;28;45461;-70
2022/11/18 15:47:28;;;;;;;;;3.00;1.00;;;;;25.62;42.68;100299.72;5054664;28;45324;-69
2022/11/18 15:49:53;;;;;;;;;3.00;2.00;;;;;25.75;42.49;100307.19;5052475;28;45559;-68
2022/11/18 15:52:19;;;;;;;;;3.00;1.67;;;;;25.86;42.54;100306.66;5054291;28;57412;-68
2022/11/18 15:54:44;;;;;;;;;4.67;1.67;;;;;25.94;42.01;100311.13;5046360;28;45445;-68
2022/11/18 15:57:09;;;;;;;;;1.33;1.00;;;;;26.01;42.27;100314.75;5054685;28;45358;-69
2022/11/18 15:59:35;;;;;;;;;4.00;3.00;;;;;26.04;41.94;100314.34;5055068;28;45567;-71
2022/11/18 16:02:00;;;;;;;;;1.33;1.00;;;;;26.10;42.39;100310.00;5053753;28;45384;-69
2022/11/18 16:04:26;;;;;;;;;4.67;3.00;;;;;26.15;41.93;100312.97;5056926;28;45674;-70
2022/11/18 16:06:52;;;;;;;;;2.67;2.67;;;;;26.19;42.57;100316.13;5051159;28;46233;-71
2022/11/18 16:09:17;;;;;;;;;4.00;3.00;;;;;26.20;42.00;100314.25;5054395;28;45654;-71
2022/11/18 16:14:27;;;;;;;;;6.00;3.00;;;;;26.24;42.04;100318.28;5054382;28;45788;-70
2022/11/18 16:16:55;;;;;;;;;3.33;3.00;;;;;26.25;41.90;100329.00;5057807;28;45611;-68
2022/11/18 16:19:23;;;;;;;;;2.33;2.00;;;;;26.27;42.37;100329.63;5056960;28;45415;-69
2022/11/18 16:21:51;;;;;;;;;2.00;2.00;;;;;26.27;42.15;100328.78;5055865;28;46101;-68
2022/11/18 16:24:22;;;;;;;;;3.67;3.33;;;;;26.24;42.14;100327.25;5055748;28;45520;-74
2022/11/18 16:26:48;;;;;;;;;1.33;1.33;;;;;26.27;41.92;100355.97;5054785;28;45415;-71
2022/11/18 16:29:15;;;;;;;;;5.00;2.00;;;;;26.16;41.53;100344.56;5049518;28;45389;-68
2022/11/18 16:31:42;;;;;;;;;1.67;1.33;;;;;26.10;41.96;100356.22;5055860;28;45735;-69
2022/11/18 16:34:14;;;;;;;;;3.33;1.00;;;;;26.03;42.00;100349.88;5052413;28;45498;-68
2022/11/18 16:36:41;;;;;;;;;1.67;1.67;;;;;26.02;41.88;100370.81;5051795;28;45489;-68
2022/11/18 16:39:09;;;;;;;;;3.00;2.00;;;;;25.99;42.17;100360.31;5052338;28;45514;-69
2022/11/18 16:41:35;;;;;;;;;2.00;0.67;;;;;25.97;41.96;100356.09;5050385;28;46801;-71
2022/11/18 16:44:03;;;;;;;;;2.00;2.00;;;;;25.95;41.71;100364.44;5056133;28;47504;-69
2022/11/18 16:46:31;;;;;;;;;3.00;1.00;;;;;25.89;41.60;100359.81;5054652;28;45469;-68
2022/11/18 16:48:57;;;;;;;;;1.00;1.00;;;;;25.76;41.22;100364.03;5051604;28;45636;-69
2022/11/18 16:51:30;;;;;;;;;1.33;1.33;;;;;25.69;41.46;100370.44;5053686;28;45506;-73
2022/11/18 16:54:04;;;;;;;;;3.00;3.00;;;;;25.61;41.29;100368.69;5047980;28;45498;-70
2022/11/18 16:56:32;;;;;;;;;1.33;1.33;;;;;25.56;41.43;100372.00;5054776;28;45439;-70
2022/11/18 16:59:00;;;;;;;;;3.00;2.00;;;;;25.51;41.25;100382.56;5053163;28;45513;-70
2022/11/18 17:01:26;;;;;;;;;1.67;1.67;;;;;25.44;41.39;100379.78;5055424;28;45500;-71
2022/11/18 17:03:52;;;;;;;;;4.00;2.00;;;;;25.39;41.68;100391.19;5046869;28;45436;-70
2022/11/18 17:06:19;;;;;;;;;1.67;1.67;;;;;25.33;41.73;100380.25;5056650;28;45372;-70
2022/11/18 17:08:44;;;;;;;;;2.33;2.33;;;;;25.31;41.20;100390.47;5055683;28;45395;-70
2022/11/18 17:11:10;;;;;;;;;4.33;3.33;;;;;25.23;41.22;100392.28;5044832;28;46476;-71
2022/11/18 17:13:37;;;;;;;;;2.33;2.33;;;;;25.22;41.71;100395.16;5056358;28;45543;-69
2022/11/18 17:16:07;;;;;;;;;5.67;2.00;;;;;25.20;41.09;100392.63;5053457;28;45402;-66
2022/11/18 17:18:32;;;;;;;;;2.67;2.67;;;;;25.17;41.58;100394.91;5046397;28;45764;-66
2022/11/18 17:21:11;;;;;;;;;5.33;5.00;;;;;25.22;42.01;100389.75;5051653;28;46411;-67
2022/11/18 17:23:37;;;;;;;;;3.00;2.33;;;;;25.22;41.62;100390.56;5047339;28;45558;-67
2022/11/18 17:26:03;;;;;;;;;4.33;4.00;;;;;25.31;41.59;100395.91;5053608;28;45475;-67
2022/11/18 17:28:29;;;;;;;;;6.33;3.00;;;;;25.36;41.74;100398.88;5056023;28;45335;-67
2022/11/18 17:30:55;;;;;;;;;2.33;2.33;;;;;25.41;41.51;100398.34;5044028;28;47780;-69
2022/11/18 17:33:21;;;;;;;;;3.00;3.00;;;;;25.49;41.52;100399.06;5045070;28;45388;-71
2022/11/18 17:35:57;;;;;;;;;3.33;3.33;;;;;25.54;41.42;100403.91;5052671;28;45411;-69
2022/11/18 17:38:23;;;;;;;;;3.00;2.00;;;;;25.56;41.70;100401.88;5055751;28;45360;-68
2022/11/18 17:40:55;;;;;;;;;7.00;7.00;;;;;25.62;41.61;100411.13;5047090;28;45621;-69
2022/11/18 17:43:21;;;;;;;;;9.00;5.67;;;;;25.57;41.85;100398.13;5087143;27;45395;-67
2022/11/18 17:45:58;;;;;;;;;7.33;4.33;;;;;25.60;41.56;100415.94;5054858;28;45453;-66
2022/11/18 17:48:25;;;;;;;;;8.33;5.33;;;;;25.57;41.48;100414.44;5044405;28;45429;-67
2022/11/18 17:50:52;;;;;;;;;8.33;5.00;;;;;25.57;41.42;100422.59;5054774;28;45414;-66
2022/11/18 17:53:18;;;;;;;;;7.00;4.67;;;;;25.58;41.23;100423.44;5055281;28;45495;-67
2022/11/18 17:55:44;;;;;;;;;5.67;4.00;;;;;25.55;41.40;100421.06;5055182;28;45413;-66
2022/11/18 17:58:10;;;;;;;;;5.33;4.33;;;;;25.58;41.48;100427.00;5055692;28;45423;-66
2022/11/18 18:00:36;;;;;;;;;4.33;4.00;;;;;25.54;41.48;100417.50;5055273;28;46291;-67
2022/11/18 18:03:02;;;;;;;;;6.00;4.33;;;;;25.58;41.04;100423.44;5055472;28;45316;-67
2022/11/18 18:05:28;;;;;;;;;5.33;5.00;;;;;25.57;41.46;100421.75;5043481;28;45494;-67
2022/11/18 18:07:55;;;;;;;;;6.00;6.00;;;;;25.56;41.71;100422.78;5053615;28;45336;-67
2022/11/18 18:10:21;;;;;;;;;5.33;4.00;;;;;25.57;41.87;100435.31;5055418;28;46341;-66
2022/11/18 18:15:30;;;;;;;;;8.00;5.33;;;;;25.49;41.17;100425.38;5041107;28;45407;-67
2022/11/18 18:17:56;;;;;;;;;8.00;6.67;;;;;25.50;41.45;100430.63;5050741;28;45514;-67
2022/11/18 18:20:21;;;;;;;;;9.00;6.67;;;;;25.47;41.27;100438.31;5054740;28;46266;-67
2022/11/18 18:22:47;;;;;;;;;9.33;8.67;;;;;25.46;41.69;100442.91;5057430;28;45730;-66
2022/11/18 18:25:12;;;;;;;;;8.00;7.67;;;;;25.39;41.54;100441.97;5047537;28;45434;-67
2022/11/18 18:27:38;;;;;;;;;9.67;8.67;;;;;25.32;41.78;100443.75;5048741;28;45627;-70
2022/11/18 18:30:06;;;;;;;;;11.00;9.67;;;;;25.30;41.26;100443.94;5053975;28;47317;-69
2022/11/18 18:32:31;;;;;;;;;6.00;6.00;;;;;25.27;41.12;100450.59;5053024;28;45830;-70
2022/11/18 18:34:57;;;;;;;;;5.33;5.33;;;;;25.20;41.07;100457.81;5070036;27;45372;-70
2022/11/18 18:37:22;;;;;;;;;6.33;6.33;;;;;25.12;41.39;100455.19;5055331;28;45342;-70
2022/11/18 18:39:47;;;;;;;;;6.00;5.33;;;;;25.04;41.30;100452.53;5046150;28;46252;-70
2022/11/18 18:42:13;;;;;;;;;10.67;7.33;;;;;24.97;41.29;100464.16;5067966;28;58365;-70
2022/11/18 18:47:23;;;;;;;;;6.00;5.00;;;;;24.85;41.39;100465.66;5048447;28;45487;-70
2022/11/18 18:49:48;;;;;;;;;7.00;6.67;;;;;24.83;41.41;100473.13;5056388;28;46219;-70
2022/11/18 18:52:13;;;;;;;;;6.67;6.67;;;;;24.78;41.52;100473.66;5055861;28;45374;-70
2022/11/18 18:54:39;;;;;;;;;10.33;7.00;;;;;24.78;41.56;100475.50;5055907;28;45538;-70
2022/11/18 18:57:04;;;;;;;;;7.33;7.33;;;;;24.73;41.28;100470.63;5054708;28;45392;-70
2022/11/18 18:59:31;;;;;;;;;8.33;6.67;;;;;24.71;41.50;100470.81;5048538;28;51644;-70
2022/11/18 19:01:56;;;;;;;;;10.67;10.67;;;;;24.71;41.37;100469.97;5044078;28;45462;-69
2022/11/18 19:04:22;;;;;;;;;13.67;10.67;;;;;24.70;41.30;100460.16;5044950;28;45614;-70
2022/11/18 19:06:47;;;;;;;;;8.67;8.67;;;;;24.66;41.42;100465.09;5044772;28;45448;-69
2022/11/18 19:09:13;;;;;;;;;12.67;9.67;;;;;24.67;41.24;100466.78;5047496;28;45903;-70
2022/11/18 19:14:24;;;;;;;;;12.67;9.67;;;;;24.61;41.54;100459.38;5047356;28;45391;-69
2022/11/18 19:16:50;;;;;;;;;11.00;10.67;;;;;24.60;41.53;100466.66;5052009;28;45415;-69
2022/11/18 19:20:32;;;;;;;;;9.67;8.00;;;;;24.61;41.50;100468.34;5043163;28;45649;-69
2022/11/18 19:22:03;;;;;;;;;11.00;8.00;;;;;24.58;41.35;100468.72;5045341;28;45515;-69
2022/11/18 19:24:28;;;;;;;;;10.00;10.00;;;;;24.57;41.73;100468.91;5044160;28;45685;-69
2022/11/18 19:26:53;;;;;;;;;10.67;7.33;;;;;24.55;41.35;100460.94;5053179;28;51748;-71
2022/11/18 19:29:19;;;;;;;;;11.00;10.33;;;;;24.54;41.46;100461.97;5041646;28;48201;-71
2022/11/18 19:31:44;;;;;;;;;11.33;11.00;;;;;24.53;41.45;100471.16;5039160;28;48431;-71
2022/11/18 19:34:09;;;;;;;;;8.33;8.33;;;;;24.51;41.52;100467.75;5047939;28;45421;-68
2022/11/18 19:36:35;;;;;;;;;11.00;9.00;;;;;24.53;41.53;100470.28;5053660;28;45602;-68
2022/11/18 19:39:00;;;;;;;;;10.67;10.67;;;;;24.51;41.44;100475.91;5066872;27;47122;-69
2022/11/18 19:41:25;;;;;;;;;13.00;13.00;;;;;24.48;41.47;100473.53;5066218;27;46203;-69